createdAt,value
2023-03-21T00:00:53.512Z,88519.00
2023-03-21T00:01:53.546Z,88521.00
2023-03-21T00:02:53.535Z,88521.00
2023-03-21T00:03:53.503Z,88519.00
2023-03-21T00:04:55.067Z,88519.00
2023-03-21T00:05:53.620Z,88517.00
2023-03-21T00:06:53.410Z,88517.00
2023-03-21T00:07:53.394Z,88517.00
2023-03-21T00:08:53.379Z,88515.00
2023-03-21T00:09:55.183Z,88513.00
2023-03-21T00:10:53.360Z,88513.00
2023-03-21T00:11:53.357Z,88513.00
2023-03-21T00:12:53.339Z,88509.00
2023-03-21T00:13:53.335Z,88509.00
2023-03-21T00:14:53.308Z,88507.00
2023-03-21T00:16:07.111Z,88507.00
2023-03-21T00:16:54.298Z,88507.00
2023-03-21T00:17:53.271Z,88505.00
2023-03-21T00:18:53.232Z,88503.00
2023-03-21T00:19:53.242Z,88503.00
2023-03-21T00:21:02.530Z,88505.00
2023-03-21T00:22:08.814Z,88503.00
2023-03-21T00:22:54.191Z,88503.00
2023-03-21T00:23:53.170Z,88503.00
2023-03-21T00:24:53.155Z,88503.00
2023-03-21T00:25:53.167Z,88503.00
2023-03-21T00:26:53.919Z,88503.00
2023-03-21T00:28:07.225Z,88503.00
2023-03-21T00:28:54.118Z,88503.00
2023-03-21T00:29:53.101Z,88501.00
2023-03-21T00:30:53.079Z,88501.00
2023-03-21T00:31:53.071Z,88499.00
2023-03-21T00:32:56.443Z,88497.00
2023-03-21T00:33:53.026Z,88499.00
2023-03-21T00:35:38.273Z,88499.00
2023-03-21T00:36:02.238Z,88495.00
2023-03-21T00:36:54.099Z,88493.00
2023-03-21T00:37:52.971Z,88493.00
2023-03-21T00:38:52.954Z,88487.00
2023-03-21T00:39:52.960Z,88487.00
2023-03-21T00:40:53.038Z,88487.00
2023-03-21T00:41:52.953Z,88478.00
2023-03-21T00:42:52.910Z,88476.00
2023-03-21T00:43:52.891Z,88474.00
2023-03-21T00:44:52.881Z,88472.00
2023-03-21T00:45:52.866Z,88472.00
2023-03-21T00:47:06.205Z,88470.00
2023-03-21T00:47:53.956Z,88468.00
2023-03-21T00:48:52.815Z,88468.00
2023-03-21T00:49:52.794Z,88466.00
2023-03-21T00:50:52.781Z,88464.00
2023-03-21T00:51:53.294Z,88463.00
2023-03-21T00:52:52.757Z,88461.00
2023-03-21T00:53:52.738Z,88461.00
2023-03-21T00:54:52.728Z,88459.00
2023-03-21T00:55:52.704Z,88457.00
2023-03-21T00:56:52.708Z,88455.00
2023-03-21T00:58:01.222Z,88453.00
2023-03-21T00:58:53.682Z,88453.00
2023-03-21T00:59:52.669Z,88451.00
2023-03-21T01:00:52.767Z,88449.00
2023-03-21T01:01:52.688Z,88451.00
2023-03-21T01:03:00.196Z,88453.00
2023-03-21T01:03:53.616Z,88449.00
2023-03-21T01:04:52.639Z,88453.00
2023-03-21T01:05:52.618Z,88451.00
2023-03-21T01:06:52.588Z,88451.00
2023-03-21T01:07:52.573Z,88451.00
2023-03-21T01:08:53.522Z,88449.00
2023-03-21T01:09:52.544Z,88447.00
2023-03-21T01:10:52.536Z,88445.00
2023-03-21T01:11:52.518Z,88445.00
2023-03-21T01:12:52.488Z,88443.00
2023-03-21T01:13:59.753Z,88445.00
2023-03-21T01:14:53.465Z,88447.00
2023-03-21T01:15:52.472Z,88443.00
2023-03-21T01:16:52.425Z,88443.00
2023-03-21T01:17:52.425Z,88447.00
2023-03-21T01:18:52.406Z,88445.00
2023-03-21T01:19:52.566Z,88445.00
2023-03-21T01:20:52.371Z,88445.00
2023-03-21T01:21:52.366Z,88445.00
2023-03-21T01:22:52.335Z,88443.00
2023-03-21T01:23:52.334Z,88441.00
2023-03-21T01:24:56.968Z,88441.00
2023-03-21T01:25:53.313Z,88441.00
2023-03-21T01:26:52.327Z,88439.00
2023-03-21T01:27:52.270Z,88439.00
2023-03-21T01:28:52.280Z,88439.00
2023-03-21T01:29:52.248Z,88437.00
2023-03-21T01:30:52.239Z,88437.00
2023-03-21T01:31:52.355Z,88437.00
2023-03-21T01:32:52.208Z,88437.00
2023-03-21T01:33:52.215Z,88437.00
2023-03-21T01:34:52.184Z,88437.00
2023-03-21T01:36:03.079Z,88437.00
2023-03-21T01:36:53.292Z,88437.00
2023-03-21T01:37:52.134Z,88439.00
2023-03-21T01:38:52.120Z,88437.00
2023-03-21T01:39:52.121Z,88437.00
2023-03-21T01:40:52.132Z,88437.00
2023-03-21T01:41:52.101Z,88435.00
2023-03-21T01:42:52.088Z,88435.00
2023-03-21T01:43:52.060Z,88433.00
2023-03-21T01:44:52.049Z,88429.00
2023-03-21T01:45:52.075Z,88433.00
2023-03-21T01:47:03.958Z,88427.00
2023-03-21T01:47:53.068Z,88427.00
2023-03-21T01:48:52.022Z,88427.00
2023-03-21T01:49:52.006Z,88429.00
2023-03-21T01:50:51.965Z,88425.00
2023-03-21T01:51:53.684Z,88423.00
2023-03-21T01:52:51.957Z,88423.00
2023-03-21T01:53:51.930Z,88423.00
2023-03-21T01:54:51.918Z,88421.00
2023-03-21T01:55:51.896Z,88419.00
2023-03-21T01:56:51.882Z,88419.00
2023-03-21T01:58:04.328Z,88419.00
2023-03-21T01:58:52.858Z,88421.00
2023-03-21T01:59:51.834Z,88419.00
2023-03-21T02:00:51.873Z,88421.00
2023-03-21T02:01:51.808Z,88419.00
2023-03-21T02:02:52.531Z,88417.00
2023-03-21T02:03:51.854Z,88417.00
2023-03-21T02:04:51.789Z,88416.00
2023-03-21T02:05:51.762Z,88414.00
2023-03-21T02:06:51.771Z,88414.00
2023-03-21T02:07:51.755Z,88412.00
2023-03-21T02:08:51.746Z,88412.00
2023-03-21T02:09:51.728Z,88412.00
2023-03-21T02:10:51.727Z,88410.00
2023-03-21T02:11:51.715Z,88410.00
2023-03-21T02:12:51.715Z,88410.00
2023-03-21T02:13:55.829Z,88410.00
2023-03-21T02:14:52.699Z,88408.00
2023-03-21T02:15:51.687Z,88406.00
2023-03-21T02:16:51.723Z,88408.00
2023-03-21T02:17:51.662Z,88408.00
2023-03-21T02:18:51.645Z,88404.00
2023-03-21T02:19:53.678Z,88402.00
2023-03-21T02:20:51.626Z,88398.00
2023-03-21T02:21:51.621Z,88402.00
2023-03-21T02:22:51.610Z,88402.00
2023-03-21T02:23:51.614Z,88402.00
2023-03-21T02:24:59.627Z,88402.00
2023-03-21T02:25:52.594Z,88404.00
2023-03-21T02:27:01.489Z,88406.00
2023-03-21T02:27:52.577Z,88404.00
2023-03-21T02:28:51.545Z,88404.00
2023-03-21T02:29:51.541Z,88404.00
2023-03-21T02:30:52.590Z,88402.00
2023-03-21T02:31:51.564Z,88400.00
2023-03-21T02:32:51.519Z,88400.00
2023-03-21T02:33:51.512Z,88400.00
2023-03-21T02:34:51.490Z,88398.00
2023-03-21T02:35:54.460Z,88396.00
2023-03-21T02:36:52.505Z,88396.00
2023-03-21T02:37:58.500Z,88394.00
2023-03-21T02:38:52.466Z,88396.00
2023-03-21T02:39:51.459Z,88396.00
2023-03-21T02:40:51.455Z,88398.00
2023-03-21T02:41:51.456Z,88398.00
2023-03-21T02:42:59.482Z,88398.00
2023-03-21T02:43:52.430Z,88402.00
2023-03-21T02:44:51.425Z,88400.00
2023-03-21T02:45:51.430Z,88400.00
2023-03-21T02:46:59.714Z,88402.00
2023-03-21T02:47:52.501Z,88400.00
2023-03-21T02:48:51.424Z,88400.00
2023-03-21T02:49:51.358Z,88400.00
2023-03-21T02:50:51.358Z,88400.00
2023-03-21T02:51:51.349Z,88400.00
2023-03-21T02:52:51.336Z,88396.00
2023-03-21T02:54:02.116Z,88398.00
2023-03-21T02:54:52.308Z,88396.00
2023-03-21T02:55:51.304Z,88394.00
2023-03-21T02:56:51.281Z,88394.00
2023-03-21T02:57:52.501Z,88392.00
2023-03-21T02:58:51.261Z,88394.00
2023-03-21T02:59:55.703Z,88392.00
2023-03-21T03:00:52.239Z,88390.00
2023-03-21T03:01:51.251Z,88388.00
2023-03-21T03:03:02.675Z,88388.00
2023-03-21T03:03:52.222Z,88388.00
2023-03-21T03:04:51.187Z,88388.00
2023-03-21T03:05:51.168Z,88388.00
2023-03-21T03:06:51.158Z,88388.00
2023-03-21T03:07:51.158Z,88386.00
2023-03-21T03:09:01.801Z,88386.00
2023-03-21T03:09:52.130Z,88386.00
2023-03-21T03:10:51.129Z,88386.00
2023-03-21T03:11:51.121Z,88388.00
2023-03-21T03:12:51.096Z,88388.00
2023-03-21T03:13:51.102Z,88386.00
2023-03-21T03:15:02.735Z,88390.00
2023-03-21T03:15:52.083Z,88388.00
2023-03-21T03:16:51.052Z,88388.00
2023-03-21T03:17:51.041Z,88388.00
2023-03-21T03:18:51.053Z,88388.00
2023-03-21T03:19:51.415Z,88388.00
2023-03-21T03:20:50.992Z,88388.00
2023-03-21T03:21:50.974Z,88388.00
2023-03-21T03:22:50.960Z,88386.00
2023-03-21T03:23:50.946Z,88384.00
2023-03-21T03:24:50.952Z,88384.00
2023-03-21T03:25:50.945Z,88386.00
2023-03-21T03:26:50.904Z,88386.00
2023-03-21T03:27:50.890Z,88386.00
2023-03-21T03:28:50.902Z,88386.00
2023-03-21T03:29:50.900Z,88386.00
2023-03-21T03:31:07.125Z,88386.00
2023-03-21T03:31:51.916Z,88386.00
2023-03-21T03:32:50.837Z,88384.00
2023-03-21T03:33:50.818Z,88384.00
2023-03-21T03:34:50.811Z,88382.00
2023-03-21T03:36:04.664Z,88380.00
2023-03-21T03:36:51.884Z,88380.00
2023-03-21T03:37:50.783Z,88378.00
2023-03-21T03:38:50.788Z,88380.00
2023-03-21T03:39:50.771Z,88376.00
2023-03-21T03:40:50.752Z,88376.00
2023-03-21T03:42:08.067Z,88376.00
2023-03-21T03:42:51.754Z,88372.00
2023-03-21T03:43:50.713Z,88372.00
2023-03-21T03:44:50.721Z,88372.00
2023-03-21T03:45:50.690Z,88374.00
2023-03-21T03:46:50.764Z,88376.00
2023-03-21T03:47:56.876Z,88374.00
2023-03-21T03:48:51.661Z,88376.00
2023-03-21T03:49:50.660Z,88376.00
2023-03-21T03:50:50.645Z,88374.00
2023-03-21T03:51:50.646Z,88372.00
2023-03-21T03:52:57.005Z,88370.00
2023-03-21T03:53:51.614Z,88370.00
2023-03-21T03:54:50.620Z,88368.00
2023-03-21T03:55:50.599Z,88372.00
2023-03-21T03:56:50.588Z,88374.00
2023-03-21T03:57:50.572Z,88376.00
2023-03-21T03:58:50.578Z,88376.00
2023-03-21T03:59:50.576Z,88370.00
2023-03-21T04:00:50.557Z,88372.00
2023-03-21T04:01:50.590Z,88370.00
2023-03-21T04:02:50.589Z,88370.00
2023-03-21T04:03:56.404Z,88368.00
2023-03-21T04:04:51.524Z,88366.00
2023-03-21T04:05:50.509Z,88368.00
2023-03-21T04:06:50.498Z,88370.00
2023-03-21T04:07:50.503Z,88370.00
2023-03-21T04:08:50.489Z,88372.00
2023-03-21T04:09:50.482Z,88368.00
2023-03-21T04:10:50.475Z,88372.00
2023-03-21T04:11:50.476Z,88368.00
2023-03-21T04:12:50.458Z,88370.00
2023-03-21T04:13:50.482Z,88370.00
2023-03-21T04:14:50.436Z,88370.00
2023-03-21T04:15:50.474Z,88374.00
2023-03-21T04:16:50.431Z,88374.00
2023-03-21T04:17:50.411Z,88372.00
2023-03-21T04:18:50.409Z,88374.00
2023-03-21T04:19:51.995Z,88370.00
2023-03-21T04:20:50.389Z,88370.00
2023-03-21T04:21:50.388Z,88370.00
2023-03-21T04:22:50.378Z,88368.00
2023-03-21T04:23:50.375Z,88366.00
2023-03-21T04:24:50.369Z,88366.00
2023-03-21T04:25:56.363Z,88366.00
2023-03-21T04:26:51.355Z,88364.00
2023-03-21T04:27:50.335Z,88366.00
2023-03-21T04:28:50.337Z,88364.00
2023-03-21T04:29:50.333Z,88366.00
2023-03-21T04:31:01.192Z,88368.00
2023-03-21T04:31:51.352Z,88368.00
2023-03-21T04:32:50.300Z,88368.00
2023-03-21T04:33:50.295Z,88368.00
2023-03-21T04:34:50.378Z,88368.00
2023-03-21T04:35:50.345Z,88368.00
2023-03-21T04:36:50.268Z,88366.00
2023-03-21T04:37:50.288Z,88366.00
2023-03-21T04:38:50.245Z,88366.00
2023-03-21T04:39:50.237Z,88366.00
2023-03-21T04:40:50.236Z,88366.00
2023-03-21T04:41:50.224Z,88364.00
2023-03-21T04:42:50.216Z,88361.00
2023-03-21T04:43:50.804Z,88362.00
2023-03-21T04:44:50.195Z,88362.00
2023-03-21T04:45:50.272Z,88368.00
2023-03-21T04:46:50.168Z,88368.00
2023-03-21T04:47:50.200Z,88370.00
2023-03-21T04:48:50.150Z,88366.00
2023-03-21T04:49:50.163Z,88366.00
2023-03-21T04:50:50.131Z,88368.00
2023-03-21T04:51:50.111Z,88368.00
2023-03-21T04:52:50.855Z,88368.00
2023-03-21T04:53:50.102Z,88376.00
2023-03-21T04:54:50.084Z,88376.00
2023-03-21T04:55:53.442Z,88372.00
2023-03-21T04:56:50.077Z,88380.00
2023-03-21T04:57:50.062Z,88376.00
2023-03-21T04:58:50.078Z,88378.00
2023-03-21T04:59:50.050Z,88378.00
2023-03-21T05:00:50.065Z,88380.00
2023-03-21T05:01:50.049Z,88380.00
2023-03-21T05:02:50.028Z,88380.00
2023-03-21T05:03:50.049Z,88380.00
2023-03-21T05:04:50.008Z,88380.00
2023-03-21T05:05:49.996Z,88386.00
2023-03-21T05:06:49.999Z,88380.00
2023-03-21T05:07:49.995Z,88380.00
2023-03-21T05:08:49.964Z,88380.00
2023-03-21T05:09:49.962Z,88380.00
2023-03-21T05:10:49.964Z,88380.00
2023-03-21T05:11:49.931Z,88380.00
2023-03-21T05:12:49.936Z,88378.00
2023-03-21T05:13:49.917Z,88380.00
2023-03-21T05:14:49.902Z,88380.00
2023-03-21T05:15:49.921Z,88380.00
2023-03-21T05:16:49.902Z,88380.00
2023-03-21T05:17:49.871Z,88380.00
2023-03-21T05:18:49.871Z,88382.00
2023-03-21T05:19:49.859Z,88384.00
2023-03-21T05:20:49.862Z,88384.00
2023-03-21T05:21:49.853Z,88386.00
2023-03-21T05:22:49.840Z,88388.00
2023-03-21T05:23:49.852Z,88384.00
2023-03-21T05:24:49.833Z,88388.00
2023-03-21T05:25:49.819Z,88388.00
2023-03-21T05:26:49.805Z,88388.00
2023-03-21T05:27:49.796Z,88388.00
2023-03-21T05:28:49.788Z,88388.00
2023-03-21T05:29:49.783Z,88390.00
2023-03-21T05:30:49.805Z,88392.00
2023-03-21T05:31:49.750Z,88392.00
2023-03-21T05:32:49.748Z,88394.00
2023-03-21T05:33:49.738Z,88390.00
2023-03-21T05:34:49.752Z,88392.00
2023-03-21T05:35:49.784Z,88388.00
2023-03-21T05:36:49.710Z,88392.00
2023-03-21T05:37:49.710Z,88388.00
2023-03-21T05:38:49.707Z,88390.00
2023-03-21T05:39:49.688Z,88392.00
2023-03-21T05:40:49.683Z,88392.00
2023-03-21T05:41:49.676Z,88392.00
2023-03-21T05:42:49.670Z,88388.00
2023-03-21T05:43:49.666Z,88390.00
2023-03-21T05:44:49.647Z,88390.00
2023-03-21T05:45:49.770Z,88386.00
2023-03-21T05:46:49.631Z,88388.00
2023-03-21T05:47:49.731Z,88388.00
2023-03-21T05:48:49.615Z,88388.00
2023-03-21T05:49:49.602Z,88388.00
2023-03-21T05:50:49.618Z,88388.00
2023-03-21T05:51:49.589Z,88392.00
2023-03-21T05:52:49.591Z,88390.00
2023-03-21T05:53:49.592Z,88392.00
2023-03-21T05:54:49.583Z,88388.00
2023-03-21T05:55:49.605Z,88394.00
2023-03-21T05:56:49.614Z,88390.00
2023-03-21T05:57:49.564Z,88390.00
2023-03-21T05:58:49.556Z,88392.00
2023-03-21T05:59:49.533Z,88390.00
2023-03-21T06:00:49.534Z,88392.00
2023-03-21T06:01:49.527Z,88394.00
2023-03-21T06:02:49.551Z,88392.00
2023-03-21T06:03:49.532Z,88394.00
2023-03-21T06:04:49.512Z,88394.00
2023-03-21T06:05:49.493Z,88394.00
2023-03-21T06:06:49.478Z,88394.00
2023-03-21T06:07:49.480Z,88392.00
2023-03-21T06:08:49.501Z,88392.00
2023-03-21T06:09:49.452Z,88392.00
2023-03-21T06:10:49.448Z,88390.00
2023-03-21T06:11:49.441Z,88392.00
2023-03-21T06:12:49.446Z,88392.00
2023-03-21T06:13:49.428Z,88392.00
2023-03-21T06:14:49.407Z,88394.00
2023-03-21T06:15:49.463Z,88394.00
2023-03-21T06:16:49.412Z,88398.00
2023-03-21T06:17:49.407Z,88396.00
2023-03-21T06:18:49.402Z,88394.00
2023-03-21T06:19:49.386Z,88396.00
2023-03-21T06:20:49.381Z,88396.00
2023-03-21T06:21:49.421Z,88394.00
2023-03-21T06:22:49.383Z,88394.00
2023-03-21T06:23:49.355Z,88394.00
2023-03-21T06:24:49.367Z,88394.00
2023-03-21T06:25:49.340Z,88396.00
2023-03-21T06:26:49.340Z,88396.00
2023-03-21T06:27:49.341Z,88396.00
2023-03-21T06:28:49.359Z,88394.00
2023-03-21T06:29:49.325Z,88396.00
2023-03-21T06:30:49.549Z,88398.00
2023-03-21T06:31:49.319Z,88390.00
2023-03-21T06:32:49.297Z,88390.00
2023-03-21T06:33:49.304Z,88390.00
2023-03-21T06:34:49.299Z,88392.00
2023-03-21T06:35:49.344Z,88388.00
2023-03-21T06:36:49.299Z,88396.00
2023-03-21T06:37:49.333Z,88390.00
2023-03-21T06:38:49.250Z,88390.00
2023-03-21T06:39:49.256Z,88392.00
2023-03-21T06:40:49.224Z,88390.00
2023-03-21T06:41:49.245Z,88392.00
2023-03-21T06:42:49.191Z,88394.00
2023-03-21T06:43:49.191Z,88396.00
2023-03-21T06:44:49.213Z,88398.00
2023-03-21T06:45:49.168Z,88398.00
2023-03-21T06:46:49.293Z,88398.00
2023-03-21T06:47:49.162Z,88400.00
2023-03-21T06:48:49.097Z,88400.00
2023-03-21T06:49:49.071Z,88398.00
2023-03-21T06:50:49.076Z,88398.00
2023-03-21T06:51:49.044Z,88398.00
2023-03-21T06:52:49.027Z,88396.00
2023-03-21T06:53:49.020Z,88398.00
2023-03-21T06:54:49.058Z,88398.00
2023-03-21T06:55:49.017Z,88396.00
2023-03-21T06:56:49.046Z,88396.00
2023-03-21T06:57:49.089Z,88394.00
2023-03-21T06:58:49.002Z,88394.00
2023-03-21T06:59:48.998Z,88394.00
2023-03-21T07:00:49.039Z,88394.00
2023-03-21T07:01:49.031Z,88394.00
2023-03-21T07:02:51.161Z,88394.00
2023-03-21T07:03:49.007Z,88396.00
2023-03-21T07:04:49.021Z,88398.00
2023-03-21T07:05:49.004Z,88394.00
2023-03-21T07:06:48.988Z,88400.00
2023-03-21T07:07:49.005Z,88400.00
2023-03-21T07:08:49.191Z,88398.00
2023-03-21T07:09:49.013Z,88396.00
2023-03-21T07:10:49.003Z,88398.00
2023-03-21T07:11:48.997Z,88398.00
2023-03-21T07:12:49.023Z,88398.00
2023-03-21T07:13:48.994Z,88398.00
2023-03-21T07:14:49.004Z,88400.00
2023-03-21T07:15:49.002Z,88394.00
2023-03-21T07:16:49.040Z,88396.00
2023-03-21T07:17:49.029Z,88398.00
2023-03-21T07:18:49.038Z,88396.00
2023-03-21T07:19:49.027Z,88396.00
2023-03-21T07:20:49.048Z,88396.00
2023-03-21T07:21:49.032Z,88394.00
2023-03-21T07:22:49.033Z,88392.00
2023-03-21T07:23:49.029Z,88392.00
2023-03-21T07:25:02.391Z,88394.00
2023-03-21T07:25:50.098Z,88392.00
2023-03-21T07:26:49.042Z,88388.00
2023-03-21T07:27:49.069Z,88390.00
2023-03-21T07:28:49.047Z,88390.00
2023-03-21T07:29:49.097Z,88390.00
2023-03-21T07:30:49.061Z,88390.00
2023-03-21T07:31:49.114Z,88390.00
2023-03-21T07:32:49.081Z,88386.00
2023-03-21T07:33:49.066Z,88388.00
2023-03-21T07:34:49.082Z,88390.00
2023-03-21T07:35:49.089Z,88390.00
2023-03-21T07:36:49.071Z,88390.00
2023-03-21T07:37:49.102Z,88390.00
2023-03-21T07:38:49.084Z,88392.00
2023-03-21T07:39:49.092Z,88392.00
2023-03-21T07:40:49.098Z,88392.00
2023-03-21T07:41:49.102Z,88396.00
2023-03-21T07:42:49.099Z,88390.00
2023-03-21T07:43:49.179Z,88396.00
2023-03-21T07:44:49.099Z,88394.00
2023-03-21T07:45:49.173Z,88394.00
2023-03-21T07:46:49.108Z,88392.00
2023-03-21T07:47:49.135Z,88392.00
2023-03-21T07:48:49.072Z,88392.00
2023-03-21T07:49:49.076Z,88390.00
2023-03-21T07:50:49.089Z,88394.00
2023-03-21T07:51:49.075Z,88390.00
2023-03-21T07:52:49.245Z,88398.00
2023-03-21T07:53:49.063Z,88398.00
2023-03-21T07:54:49.058Z,88398.00
2023-03-21T07:55:49.069Z,88396.00
2023-03-21T07:56:49.086Z,88398.00
2023-03-21T07:57:49.053Z,88398.00
2023-03-21T07:58:49.041Z,88398.00
2023-03-21T07:59:49.044Z,88398.00
2023-03-21T08:00:49.015Z,88400.00
2023-03-21T08:01:49.029Z,88398.00
2023-03-21T08:02:49.024Z,88398.00
2023-03-21T08:03:49.018Z,88398.00
2023-03-21T08:04:48.959Z,88394.00
2023-03-21T08:05:48.989Z,88396.00
2023-03-21T08:06:48.964Z,88394.00
2023-03-21T08:07:48.934Z,88396.00
2023-03-21T08:08:48.899Z,88394.00
2023-03-21T08:09:48.899Z,88396.00
2023-03-21T08:10:48.869Z,88398.00
2023-03-21T08:11:48.908Z,88400.00
2023-03-21T08:12:48.837Z,88398.00
2023-03-21T08:13:48.838Z,88398.00
2023-03-21T08:14:48.805Z,88400.00
2023-03-21T08:15:48.834Z,88400.00
2023-03-21T08:16:48.857Z,88400.00
2023-03-21T08:17:48.787Z,88396.00
2023-03-21T08:18:48.740Z,88396.00
2023-03-21T08:19:48.742Z,88396.00
2023-03-21T08:20:48.736Z,88390.00
2023-03-21T08:21:48.712Z,88392.00
2023-03-21T08:22:48.684Z,88390.00
2023-03-21T08:23:48.663Z,88388.00
2023-03-21T08:24:48.665Z,88388.00
2023-03-21T08:25:48.613Z,88388.00
2023-03-21T08:26:48.619Z,88386.00
2023-03-21T08:27:48.586Z,88386.00
2023-03-21T08:28:48.563Z,88386.00
2023-03-21T08:29:48.560Z,88388.00
2023-03-21T08:30:48.561Z,88384.00
2023-03-21T08:31:48.525Z,88384.00
2023-03-21T08:32:48.501Z,88386.00
2023-03-21T08:33:48.499Z,88382.00
2023-03-21T08:34:48.466Z,88384.00
2023-03-21T08:35:48.527Z,88382.00
2023-03-21T08:36:48.439Z,88384.00
2023-03-21T08:37:48.402Z,88384.00
2023-03-21T08:38:48.385Z,88382.00
2023-03-21T08:39:48.403Z,88380.00
2023-03-21T08:40:48.312Z,88380.00
2023-03-21T08:41:48.321Z,88378.00
2023-03-21T08:42:48.309Z,88378.00
2023-03-21T08:43:48.270Z,88378.00
2023-03-21T08:44:48.239Z,88376.00
2023-03-21T08:45:48.221Z,88374.00
2023-03-21T08:46:48.212Z,88374.00
2023-03-21T08:47:48.230Z,88372.00
2023-03-21T08:48:48.163Z,88374.00
2023-03-21T08:49:48.155Z,88370.00
2023-03-21T08:50:48.113Z,88370.00
2023-03-21T08:51:48.092Z,88368.00
2023-03-21T08:52:48.179Z,88364.00
2023-03-21T08:53:48.066Z,88362.00
2023-03-21T08:54:48.053Z,88366.00
2023-03-21T08:55:48.022Z,88362.00
2023-03-21T08:56:48.024Z,88364.00
2023-03-21T08:57:47.989Z,88362.00
2023-03-21T08:58:47.977Z,88362.00
2023-03-21T08:59:47.939Z,88364.00
2023-03-21T09:00:47.901Z,88364.00
2023-03-21T09:01:47.950Z,88364.00
2023-03-21T09:02:47.865Z,88364.00
2023-03-21T09:03:47.945Z,88364.00
2023-03-21T09:04:47.859Z,88366.00
2023-03-21T09:05:47.801Z,88368.00
2023-03-21T09:06:47.771Z,88366.00
2023-03-21T09:07:47.735Z,88366.00
2023-03-21T09:08:47.707Z,88366.00
2023-03-21T09:09:53.603Z,88366.00
2023-03-21T09:10:48.663Z,88364.00
2023-03-21T09:11:47.653Z,88362.00
2023-03-21T09:12:47.690Z,88366.00
2023-03-21T09:13:47.621Z,88362.00
2023-03-21T09:14:47.582Z,88366.00
2023-03-21T09:15:47.651Z,88364.00
2023-03-21T09:16:47.554Z,88362.00
2023-03-21T09:17:47.523Z,88361.00
2023-03-21T09:18:47.581Z,88359.00
2023-03-21T09:19:47.480Z,88361.00
2023-03-21T09:20:47.458Z,88359.00
2023-03-21T09:21:47.431Z,88361.00
2023-03-21T09:22:47.465Z,88359.00
2023-03-21T09:23:47.394Z,88359.00
2023-03-21T09:24:47.367Z,88355.00
2023-03-21T09:25:47.344Z,88357.00
2023-03-21T09:26:47.321Z,88351.00
2023-03-21T09:27:47.330Z,88349.00
2023-03-21T09:28:47.266Z,88349.00
2023-03-21T09:29:47.234Z,88349.00
2023-03-21T09:30:47.263Z,88349.00
2023-03-21T09:31:47.270Z,88347.00
2023-03-21T09:32:47.165Z,88349.00
2023-03-21T09:33:47.175Z,88347.00
2023-03-21T09:34:47.157Z,88341.00
2023-03-21T09:35:47.138Z,88341.00
2023-03-21T09:36:47.076Z,88337.00
2023-03-21T09:37:47.040Z,88339.00
2023-03-21T09:38:47.007Z,88339.00
2023-03-21T09:39:46.982Z,88335.00
2023-03-21T09:40:46.975Z,88335.00
2023-03-21T09:41:46.975Z,88335.00
2023-03-21T09:42:46.913Z,88335.00
2023-03-21T09:43:46.885Z,88331.00
2023-03-21T09:49:46.780Z,88331.00
2023-03-21T10:01:46.593Z,88317.00
2023-03-21T10:02:46.537Z,88317.00
2023-03-21T10:03:46.503Z,88315.00
2023-03-21T10:04:46.554Z,88321.00
2023-03-21T10:05:46.450Z,88319.00
2023-03-21T10:06:46.415Z,88319.00
2023-03-21T10:07:46.402Z,88321.00
2023-03-21T10:08:46.392Z,88319.00
2023-03-21T10:09:46.355Z,88319.00
2023-03-21T10:10:46.367Z,88321.00
2023-03-21T10:11:46.277Z,88319.00
2023-03-21T10:12:46.291Z,88317.00
2023-03-21T10:13:46.242Z,88319.00
2023-03-21T10:14:46.365Z,88319.00
2023-03-21T10:15:46.260Z,88317.00
2023-03-21T10:16:46.223Z,88319.00
2023-03-21T10:17:46.151Z,88315.00
2023-03-21T10:18:46.146Z,88317.00
2023-03-21T10:19:46.151Z,88317.00
2023-03-21T10:20:46.090Z,88315.00
2023-03-21T10:22:03.440Z,88313.00
2023-03-21T10:22:47.080Z,88313.00
2023-03-21T10:23:46.014Z,88311.00
2023-03-21T10:24:46.027Z,88311.00
2023-03-21T10:25:46.060Z,88307.00
2023-03-21T10:26:45.964Z,88307.00
2023-03-21T10:27:45.977Z,88304.00
2023-03-21T11:02:47.134Z,88280.00
2023-03-21T15:07:39.653Z,88132.00
2023-03-21T15:08:39.603Z,88136.00
2023-03-21T15:09:39.579Z,88132.00
2023-03-21T15:10:39.547Z,88132.00
2023-03-21T15:11:39.538Z,88130.00
2023-03-21T15:12:39.504Z,88130.00
2023-03-21T15:13:39.488Z,88130.00
2023-03-21T15:14:39.443Z,88126.00
2023-03-21T15:15:39.784Z,88124.00
2023-03-21T15:16:39.513Z,88124.00
2023-03-21T15:17:39.381Z,88126.00
2023-03-21T15:18:39.357Z,88124.00
2023-03-21T15:19:39.330Z,88124.00
2023-03-21T15:20:39.299Z,88124.00
2023-03-21T15:21:39.281Z,88126.00
2023-03-21T15:22:39.260Z,88124.00
2023-03-21T15:23:39.242Z,88126.00
2023-03-21T15:24:39.267Z,88122.00
2023-03-21T15:25:39.513Z,88122.00
2023-03-21T15:26:39.202Z,88122.00
2023-03-21T15:27:39.175Z,88122.00
2023-03-21T15:28:39.143Z,88120.00
2023-03-21T15:29:39.138Z,88122.00
2023-03-21T15:30:39.102Z,88122.00
2023-03-21T15:31:39.209Z,88122.00
2023-03-21T15:32:39.163Z,88120.00
2023-03-21T15:33:39.076Z,88124.00
2023-03-21T15:34:39.029Z,88120.00
2023-03-21T15:35:39.418Z,88122.00
2023-03-21T15:36:38.989Z,88122.00
2023-03-21T15:37:38.976Z,88126.00
2023-03-21T15:38:38.999Z,88130.00
2023-03-21T15:39:38.975Z,88130.00
2023-03-21T15:40:39.118Z,88132.00
2023-03-21T15:41:38.990Z,88132.00
2023-03-21T15:42:38.904Z,88134.00
2023-03-21T15:43:40.633Z,88132.00
2023-03-21T15:44:38.871Z,88134.00
2023-03-21T15:45:39.194Z,88134.00
2023-03-21T15:46:38.850Z,88130.00
2023-03-21T15:47:38.797Z,88124.00
2023-03-21T15:48:38.876Z,88124.00
2023-03-21T15:49:38.758Z,88124.00
2023-03-21T15:50:39.031Z,88126.00
2023-03-21T15:51:38.694Z,88124.00
2023-03-21T15:52:38.664Z,88120.00
2023-03-21T15:53:38.659Z,88120.00
2023-03-21T15:54:38.630Z,88122.00
2023-03-21T15:55:38.602Z,88120.00
2023-03-21T15:56:38.612Z,88118.00
2023-03-21T15:57:38.569Z,88118.00
2023-03-21T15:58:38.567Z,88120.00
2023-03-21T15:59:38.525Z,88116.00
2023-03-21T16:00:38.903Z,88118.00
2023-03-21T16:01:38.588Z,88118.00
2023-03-21T16:02:38.464Z,88118.00
2023-03-21T16:03:38.514Z,88118.00
2023-03-21T16:04:38.531Z,88120.00
2023-03-21T16:05:38.407Z,88120.00
2023-03-21T16:06:38.376Z,88120.00
2023-03-21T16:07:38.385Z,88124.00
2023-03-21T16:08:38.336Z,88120.00
2023-03-21T16:09:38.344Z,88122.00
2023-03-21T16:10:38.654Z,88122.00
2023-03-21T16:11:38.289Z,88124.00
2023-03-21T16:12:38.281Z,88124.00
2023-03-21T16:13:38.225Z,88120.00
2023-03-21T16:14:38.336Z,88122.00
2023-03-21T16:15:38.260Z,88120.00
2023-03-21T16:16:38.231Z,88122.00
2023-03-21T16:17:38.176Z,88120.00
2023-03-21T16:18:38.127Z,88122.00
2023-03-21T16:19:38.120Z,88120.00
2023-03-21T16:20:38.443Z,88122.00
2023-03-21T16:21:38.059Z,88122.00
2023-03-21T16:22:38.056Z,88124.00
2023-03-21T16:23:38.029Z,88124.00
2023-03-21T16:24:38.051Z,88124.00
2023-03-21T16:25:38.005Z,88122.00
2023-03-21T16:26:37.986Z,88124.00
2023-03-21T16:27:38.007Z,88124.00
2023-03-21T16:28:38.005Z,88124.00
2023-03-21T16:29:37.965Z,88124.00
2023-03-21T16:30:38.185Z,88126.00
2023-03-21T16:31:37.891Z,88126.00
2023-03-21T16:32:37.870Z,88126.00
2023-03-21T16:33:37.848Z,88126.00
2023-03-21T16:34:37.835Z,88130.00
2023-03-21T16:35:37.823Z,88130.00
2023-03-21T16:36:37.812Z,88132.00
2023-03-21T16:37:37.786Z,88132.00
2023-03-21T16:38:37.763Z,88134.00